sensor_id;sensor_type;location;lat;lon;timestamp;P1;durP1;ratioP1;P2;durP2;ratioP2
19854;SDS011;10088;47.946;2.532;2023-12-20T00:01:46;3.07;;;2.07;;
19854;SDS011;10088;47.946;2.532;2023-12-20T00:04:11;2.60;;;2.40;;
19854;SDS011;10088;47.946;2.532;2023-12-20T00:06:36;2.90;;;2.60;;
19854;SDS011;10088;47.946;2.532;2023-12-20T00:09:02;5.90;;;2.80;;
19854;SDS011;10088;47.946;2.532;2023-12-20T00:11:27;2.97;;;2.40;;
19854;SDS011;10088;47.946;2.532;2023-12-20T00:13:52;3.00;;;2.70;;
19854;SDS011;10088;47.946;2.532;2023-12-20T00:16:18;3.80;;;2.67;;
19854;SDS011;10088;47.946;2.532;2023-12-20T00:18:43;3.00;;;2.43;;
19854;SDS011;10088;47.946;2.532;2023-12-20T00:21:08;4.10;;;2.93;;
19854;SDS011;10088;47.946;2.532;2023-12-20T00:23:33;2.50;;;2.30;;
19854;SDS011;10088;47.946;2.532;2023-12-20T00:25:59;3.23;;;2.80;;
19854;SDS011;10088;47.946;2.532;2023-12-20T00:28:24;3.40;;;2.43;;
19854;SDS011;10088;47.946;2.532;2023-12-20T00:30:49;2.70;;;2.30;;
19854;SDS011;10088;47.946;2.532;2023-12-20T00:33:15;3.80;;;2.90;;
19854;SDS011;10088;47.946;2.532;2023-12-20T00:35:40;3.70;;;2.70;;
19854;SDS011;10088;47.946;2.532;2023-12-20T00:38:05;4.17;;;3.03;;
19854;SDS011;10088;47.946;2.532;2023-12-20T00:40:32;4.80;;;2.77;;
19854;SDS011;10088;47.946;2.532;2023-12-20T00:42:58;4.03;;;2.80;;
19854;SDS011;10088;47.946;2.532;2023-12-20T00:45:23;4.40;;;3.10;;
19854;SDS011;10088;47.946;2.532;2023-12-20T00:47:48;2.77;;;2.57;;
19854;SDS011;10088;47.946;2.532;2023-12-20T00:50:13;2.93;;;2.63;;
19854;SDS011;10088;47.946;2.532;2023-12-20T00:52:39;5.47;;;2.90;;
19854;SDS011;10088;47.946;2.532;2023-12-20T00:55:04;3.53;;;2.63;;
19854;SDS011;10088;47.946;2.532;2023-12-20T00:57:30;3.23;;;2.43;;
19854;SDS011;10088;47.946;2.532;2023-12-20T00:59:56;2.90;;;2.40;;
19854;SDS011;10088;47.946;2.532;2023-12-20T01:02:21;3.13;;;2.73;;
19854;SDS011;10088;47.946;2.532;2023-12-20T01:04:46;3.30;;;2.30;;
19854;SDS011;10088;47.946;2.532;2023-12-20T01:07:12;2.43;;;2.17;;
19854;SDS011;10088;47.946;2.532;2023-12-20T01:09:37;3.67;;;2.27;;
19854;SDS011;10088;47.946;2.532;2023-12-20T01:12:02;2.63;;;2.13;;
19854;SDS011;10088;47.946;2.532;2023-12-20T01:14:28;2.93;;;2.40;;
19854;SDS011;10088;47.946;2.532;2023-12-20T01:16:53;3.60;;;2.13;;
19854;SDS011;10088;47.946;2.532;2023-12-20T01:19:18;2.40;;;2.20;;
19854;SDS011;10088;47.946;2.532;2023-12-20T01:21:43;2.77;;;2.27;;
19854;SDS011;10088;47.946;2.532;2023-12-20T01:24:09;6.40;;;2.50;;
19854;SDS011;10088;47.946;2.532;2023-12-20T01:26:34;2.87;;;2.30;;
19854;SDS011;10088;47.946;2.532;2023-12-20T01:28:59;3.23;;;2.10;;
19854;SDS011;10088;47.946;2.532;2023-12-20T01:31:25;3.57;;;2.13;;
19854;SDS011;10088;47.946;2.532;2023-12-20T01:33:52;2.60;;;2.13;;
19854;SDS011;10088;47.946;2.532;2023-12-20T01:36:17;2.90;;;2.30;;
19854;SDS011;10088;47.946;2.532;2023-12-20T01:38:43;2.47;;;2.17;;
19854;SDS011;10088;47.946;2.532;2023-12-20T01:41:08;2.93;;;2.10;;
19854;SDS011;10088;47.946;2.532;2023-12-20T01:43:33;3.03;;;1.97;;
19854;SDS011;10088;47.946;2.532;2023-12-20T01:45:58;3.23;;;2.20;;
19854;SDS011;10088;47.946;2.532;2023-12-20T01:48:24;2.80;;;2.20;;
19854;SDS011;10088;47.946;2.532;2023-12-20T01:50:50;6.20;;;2.30;;
19854;SDS011;10088;47.946;2.532;2023-12-20T01:53:15;3.03;;;2.10;;
19854;SDS011;10088;47.946;2.532;2023-12-20T01:55:41;3.73;;;2.27;;
19854;SDS011;10088;47.946;2.532;2023-12-20T01:58:07;3.40;;;1.97;;
19854;SDS011;10088;47.946;2.532;2023-12-20T02:00:33;5.67;;;2.30;;
19854;SDS011;10088;47.946;2.532;2023-12-20T02:03:03;2.80;;;2.27;;
19854;SDS011;10088;47.946;2.532;2023-12-20T02:05:31;3.77;;;2.37;;
19854;SDS011;10088;47.946;2.532;2023-12-20T02:07:57;3.57;;;2.37;;
19854;SDS011;10088;47.946;2.532;2023-12-20T02:10:23;4.67;;;2.30;;
19854;SDS011;10088;47.946;2.532;2023-12-20T02:12:48;3.30;;;3.00;;
19854;SDS011;10088;47.946;2.532;2023-12-20T02:15:13;7.27;;;2.87;;
19854;SDS011;10088;47.946;2.532;2023-12-20T02:17:39;2.20;;;2.00;;
19854;SDS011;10088;47.946;2.532;2023-12-20T02:20:04;3.23;;;2.13;;
19854;SDS011;10088;47.946;2.532;2023-12-20T02:22:30;4.80;;;2.80;;
19854;SDS011;10088;47.946;2.532;2023-12-20T02:24:56;3.20;;;1.63;;
19854;SDS011;10088;47.946;2.532;2023-12-20T02:27:21;2.77;;;1.93;;
19854;SDS011;10088;47.946;2.532;2023-12-20T02:29:47;3.10;;;1.80;;
19854;SDS011;10088;47.946;2.532;2023-12-20T02:32:13;6.27;;;1.70;;
19854;SDS011;10088;47.946;2.532;2023-12-20T02:34:38;4.63;;;1.80;;
19854;SDS011;10088;47.946;2.532;2023-12-20T02:37:03;3.03;;;1.50;;
19854;SDS011;10088;47.946;2.532;2023-12-20T02:39:29;2.87;;;1.30;;
19854;SDS011;10088;47.946;2.532;2023-12-20T02:41:54;4.37;;;1.17;;
19854;SDS011;10088;47.946;2.532;2023-12-20T02:44:20;2.27;;;1.30;;
19854;SDS011;10088;47.946;2.532;2023-12-20T02:46:45;3.33;;;1.00;;
19854;SDS011;10088;47.946;2.532;2023-12-20T02:49:10;4.93;;;1.53;;
19854;SDS011;10088;47.946;2.532;2023-12-20T02:51:35;4.97;;;1.13;;
19854;SDS011;10088;47.946;2.532;2023-12-20T02:54:03;2.13;;;1.13;;
19854;SDS011;10088;47.946;2.532;2023-12-20T02:56:29;2.67;;;1.30;;
19854;SDS011;10088;47.946;2.532;2023-12-20T02:58:54;5.73;;;1.43;;
19854;SDS011;10088;47.946;2.532;2023-12-20T03:01:19;1.53;;;0.90;;
19854;SDS011;10088;47.946;2.532;2023-12-20T03:03:45;3.97;;;1.10;;
19854;SDS011;10088;47.946;2.532;2023-12-20T03:06:10;4.27;;;1.17;;
19854;SDS011;10088;47.946;2.532;2023-12-20T03:08:35;6.20;;;1.80;;
19854;SDS011;10088;47.946;2.532;2023-12-20T03:11:00;5.17;;;1.30;;
19854;SDS011;10088;47.946;2.532;2023-12-20T03:13:26;5.77;;;1.60;;
19854;SDS011;10088;47.946;2.532;2023-12-20T03:15:51;3.73;;;0.70;;
19854;SDS011;10088;47.946;2.532;2023-12-20T03:18:16;7.33;;;1.50;;
19854;SDS011;10088;47.946;2.532;2023-12-20T03:20:43;8.97;;;1.30;;
19854;SDS011;10088;47.946;2.532;2023-12-20T03:23:08;2.50;;;1.00;;
19854;SDS011;10088;47.946;2.532;2023-12-20T03:25:33;5.03;;;1.00;;
19854;SDS011;10088;47.946;2.532;2023-12-20T03:27:58;5.43;;;1.10;;
19854;SDS011;10088;47.946;2.532;2023-12-20T03:30:24;5.17;;;1.03;;
19854;SDS011;10088;47.946;2.532;2023-12-20T03:32:49;2.93;;;1.13;;
19854;SDS011;10088;47.946;2.532;2023-12-20T03:35:14;2.87;;;1.10;;
19854;SDS011;10088;47.946;2.532;2023-12-20T03:37:40;3.07;;;1.00;;
19854;SDS011;10088;47.946;2.532;2023-12-20T03:40:05;1.63;;;0.90;;
19854;SDS011;10088;47.946;2.532;2023-12-20T03:42:30;4.67;;;1.30;;
19854;SDS011;10088;47.946;2.532;2023-12-20T03:44:56;4.03;;;1.10;;
19854;SDS011;10088;47.946;2.532;2023-12-20T03:47:21;5.93;;;1.13;;
19854;SDS011;10088;47.946;2.532;2023-12-20T03:49:46;6.13;;;1.00;;
19854;SDS011;10088;47.946;2.532;2023-12-20T03:52:12;5.93;;;1.37;;
19854;SDS011;10088;47.946;2.532;2023-12-20T03:54:37;3.53;;;1.20;;
19854;SDS011;10088;47.946;2.532;2023-12-20T03:57:02;6.30;;;1.43;;
19854;SDS011;10088;47.946;2.532;2023-12-20T03:59:28;4.83;;;0.77;;
19854;SDS011;10088;47.946;2.532;2023-12-20T04:01:53;3.33;;;1.10;;
19854;SDS011;10088;47.946;2.532;2023-12-20T04:04:18;7.07;;;1.30;;
19854;SDS011;10088;47.946;2.532;2023-12-20T04:06:44;2.30;;;0.60;;
19854;SDS011;10088;47.946;2.532;2023-12-20T04:09:09;3.93;;;1.00;;
19854;SDS011;10088;47.946;2.532;2023-12-20T04:11:34;6.10;;;1.10;;
19854;SDS011;10088;47.946;2.532;2023-12-20T04:14:00;1.67;;;0.80;;
19854;SDS011;10088;47.946;2.532;2023-12-20T04:16:25;3.97;;;1.07;;
19854;SDS011;10088;47.946;2.532;2023-12-20T04:18:51;5.73;;;1.00;;
19854;SDS011;10088;47.946;2.532;2023-12-20T04:21:16;5.23;;;1.07;;
19854;SDS011;10088;47.946;2.532;2023-12-20T04:23:41;4.00;;;1.10;;
19854;SDS011;10088;47.946;2.532;2023-12-20T04:26:06;4.47;;;1.20;;
19854;SDS011;10088;47.946;2.532;2023-12-20T04:28:32;7.40;;;1.00;;
19854;SDS011;10088;47.946;2.532;2023-12-20T04:30:57;5.30;;;1.00;;
19854;SDS011;10088;47.946;2.532;2023-12-20T04:33:22;6.17;;;1.47;;
19854;SDS011;10088;47.946;2.532;2023-12-20T04:35:48;0.67;;;0.67;;
19854;SDS011;10088;47.946;2.532;2023-12-20T04:38:13;6.07;;;1.27;;
19854;SDS011;10088;47.946;2.532;2023-12-20T04:40:38;9.90;;;1.20;;
19854;SDS011;10088;47.946;2.532;2023-12-20T04:43:05;9.87;;;1.10;;
19854;SDS011;10088;47.946;2.532;2023-12-20T04:45:31;4.80;;;1.17;;
19854;SDS011;10088;47.946;2.532;2023-12-20T04:47:56;5.50;;;1.13;;
19854;SDS011;10088;47.946;2.532;2023-12-20T04:50:21;3.67;;;1.33;;
19854;SDS011;10088;47.946;2.532;2023-12-20T04:52:47;7.03;;;1.10;;
19854;SDS011;10088;47.946;2.532;2023-12-20T04:55:12;3.73;;;0.93;;
19854;SDS011;10088;47.946;2.532;2023-12-20T04:57:37;8.63;;;1.73;;
19854;SDS011;10088;47.946;2.532;2023-12-20T05:00:03;4.70;;;1.13;;
19854;SDS011;10088;47.946;2.532;2023-12-20T05:02:28;2.90;;;0.93;;
19854;SDS011;10088;47.946;2.532;2023-12-20T05:04:53;7.23;;;1.23;;
19854;SDS011;10088;47.946;2.532;2023-12-20T05:07:19;3.77;;;1.13;;
19854;SDS011;10088;47.946;2.532;2023-12-20T05:09:44;5.87;;;1.40;;
19854;SDS011;10088;47.946;2.532;2023-12-20T05:12:09;2.60;;;1.30;;
19854;SDS011;10088;47.946;2.532;2023-12-20T05:14:34;2.63;;;1.20;;
19854;SDS011;10088;47.946;2.532;2023-12-20T05:17:00;6.40;;;1.40;;
19854;SDS011;10088;47.946;2.532;2023-12-20T05:19:25;4.37;;;1.30;;
19854;SDS011;10088;47.946;2.532;2023-12-20T05:21:51;6.23;;;1.27;;
19854;SDS011;10088;47.946;2.532;2023-12-20T05:24:16;6.93;;;2.40;;
19854;SDS011;10088;47.946;2.532;2023-12-20T05:26:42;4.73;;;2.10;;
19854;SDS011;10088;47.946;2.532;2023-12-20T05:29:07;3.30;;;1.87;;
19854;SDS011;10088;47.946;2.532;2023-12-20T05:31:32;11.13;;;2.70;;
19854;SDS011;10088;47.946;2.532;2023-12-20T05:33:57;6.43;;;1.97;;
19854;SDS011;10088;47.946;2.532;2023-12-20T05:36:23;4.53;;;1.73;;
19854;SDS011;10088;47.946;2.532;2023-12-20T05:38:48;2.93;;;1.30;;
19854;SDS011;10088;47.946;2.532;2023-12-20T05:41:13;6.67;;;1.83;;
19854;SDS011;10088;47.946;2.532;2023-12-20T05:43:39;13.57;;;1.70;;
19854;SDS011;10088;47.946;2.532;2023-12-20T05:46:04;4.10;;;1.43;;
19854;SDS011;10088;47.946;2.532;2023-12-20T05:48:30;4.90;;;1.73;;
19854;SDS011;10088;47.946;2.532;2023-12-20T05:50:55;3.13;;;1.30;;
19854;SDS011;10088;47.946;2.532;2023-12-20T05:53:20;7.10;;;1.97;;
19854;SDS011;10088;47.946;2.532;2023-12-20T05:55:46;8.20;;;1.40;;
19854;SDS011;10088;47.946;2.532;2023-12-20T05:58:11;9.17;;;1.27;;
19854;SDS011;10088;47.946;2.532;2023-12-20T06:00:36;1.63;;;1.33;;
19854;SDS011;10088;47.946;2.532;2023-12-20T06:03:02;2.33;;;1.13;;
19854;SDS011;10088;47.946;2.532;2023-12-20T06:05:27;6.13;;;1.40;;
19854;SDS011;10088;47.946;2.532;2023-12-20T06:07:52;2.93;;;1.53;;
19854;SDS011;10088;47.946;2.532;2023-12-20T06:10:18;7.13;;;1.87;;
19854;SDS011;10088;47.946;2.532;2023-12-20T06:12:43;12.03;;;1.77;;
19854;SDS011;10088;47.946;2.532;2023-12-20T06:15:08;6.83;;;1.60;;
19854;SDS011;10088;47.946;2.532;2023-12-20T06:17:34;5.17;;;1.43;;
19854;SDS011;10088;47.946;2.532;2023-12-20T06:20:00;3.77;;;1.33;;
19854;SDS011;10088;47.946;2.532;2023-12-20T06:22:25;2.73;;;1.23;;
19854;SDS011;10088;47.946;2.532;2023-12-20T06:24:50;8.13;;;1.53;;
19854;SDS011;10088;47.946;2.532;2023-12-20T06:27:16;5.33;;;1.20;;
19854;SDS011;10088;47.946;2.532;2023-12-20T06:29:41;5.33;;;1.40;;
19854;SDS011;10088;47.946;2.532;2023-12-20T06:32:07;4.13;;;1.13;;
19854;SDS011;10088;47.946;2.532;2023-12-20T06:34:33;6.80;;;1.47;;
19854;SDS011;10088;47.946;2.532;2023-12-20T06:36:58;4.90;;;1.37;;
19854;SDS011;10088;47.946;2.532;2023-12-20T06:39:23;3.57;;;1.30;;
19854;SDS011;10088;47.946;2.532;2023-12-20T06:41:48;4.93;;;1.77;;
19854;SDS011;10088;47.946;2.532;2023-12-20T06:44:14;1.63;;;1.20;;
19854;SDS011;10088;47.946;2.532;2023-12-20T06:46:39;4.70;;;1.50;;
19854;SDS011;10088;47.946;2.532;2023-12-20T06:49:04;4.70;;;1.47;;
19854;SDS011;10088;47.946;2.532;2023-12-20T06:51:30;7.77;;;1.53;;
19854;SDS011;10088;47.946;2.532;2023-12-20T06:53:56;3.33;;;1.30;;
19854;SDS011;10088;47.946;2.532;2023-12-20T06:56:21;2.77;;;1.10;;
19854;SDS011;10088;47.946;2.532;2023-12-20T06:58:46;9.00;;;1.53;;
19854;SDS011;10088;47.946;2.532;2023-12-20T07:01:12;7.20;;;1.40;;
19854;SDS011;10088;47.946;2.532;2023-12-20T07:03:37;7.80;;;1.73;;
19854;SDS011;10088;47.946;2.532;2023-12-20T07:06:02;6.73;;;1.83;;
19854;SDS011;10088;47.946;2.532;2023-12-20T07:08:28;5.27;;;1.53;;
19854;SDS011;10088;47.946;2.532;2023-12-20T07:10:53;8.17;;;1.90;;
19854;SDS011;10088;47.946;2.532;2023-12-20T07:13:19;4.63;;;1.77;;
19854;SDS011;10088;47.946;2.532;2023-12-20T07:15:44;3.77;;;2.10;;
19854;SDS011;10088;47.946;2.532;2023-12-20T07:18:09;4.00;;;2.20;;
19854;SDS011;10088;47.946;2.532;2023-12-20T07:20:35;4.17;;;1.43;;
19854;SDS011;10088;47.946;2.532;2023-12-20T07:23:00;7.93;;;1.73;;
19854;SDS011;10088;47.946;2.532;2023-12-20T07:25:25;4.93;;;1.57;;
19854;SDS011;10088;47.946;2.532;2023-12-20T07:27:50;9.97;;;2.33;;
19854;SDS011;10088;47.946;2.532;2023-12-20T07:30:16;9.57;;;1.97;;
19854;SDS011;10088;47.946;2.532;2023-12-20T07:32:41;6.17;;;1.20;;
19854;SDS011;10088;47.946;2.532;2023-12-20T07:35:06;4.73;;;1.60;;
19854;SDS011;10088;47.946;2.532;2023-12-20T07:37:32;5.60;;;1.37;;
19854;SDS011;10088;47.946;2.532;2023-12-20T07:39:57;6.63;;;1.47;;
19854;SDS011;10088;47.946;2.532;2023-12-20T07:42:22;6.23;;;1.23;;
19854;SDS011;10088;47.946;2.532;2023-12-20T07:44:48;7.20;;;1.10;;
19854;SDS011;10088;47.946;2.532;2023-12-20T07:47:13;3.43;;;1.27;;
19854;SDS011;10088;47.946;2.532;2023-12-20T07:49:42;10.77;;;1.60;;
19854;SDS011;10088;47.946;2.532;2023-12-20T07:52:07;6.83;;;1.43;;
19854;SDS011;10088;47.946;2.532;2023-12-20T07:54:33;5.10;;;1.77;;
19854;SDS011;10088;47.946;2.532;2023-12-20T07:56:58;5.30;;;1.50;;
19854;SDS011;10088;47.946;2.532;2023-12-20T07:59:23;12.30;;;1.90;;
19854;SDS011;10088;47.946;2.532;2023-12-20T08:01:49;6.97;;;1.37;;
19854;SDS011;10088;47.946;2.532;2023-12-20T08:04:14;2.10;;;1.00;;
19854;SDS011;10088;47.946;2.532;2023-12-20T08:06:39;7.13;;;1.37;;
19854;SDS011;10088;47.946;2.532;2023-12-20T08:09:04;6.77;;;1.27;;
19854;SDS011;10088;47.946;2.532;2023-12-20T08:11:30;9.40;;;1.67;;
19854;SDS011;10088;47.946;2.532;2023-12-20T08:13:55;3.30;;;1.47;;
19854;SDS011;10088;47.946;2.532;2023-12-20T08:16:21;4.40;;;1.40;;
19854;SDS011;10088;47.946;2.532;2023-12-20T08:18:46;3.97;;;1.30;;
19854;SDS011;10088;47.946;2.532;2023-12-20T08:21:12;18.10;;;2.10;;
19854;SDS011;10088;47.946;2.532;2023-12-20T08:23:37;5.93;;;2.00;;
19854;SDS011;10088;47.946;2.532;2023-12-20T08:26:09;6.80;;;2.03;;
19854;SDS011;10088;47.946;2.532;2023-12-20T08:28:34;9.30;;;1.67;;
19854;SDS011;10088;47.946;2.532;2023-12-20T08:30:59;8.23;;;1.40;;
19854;SDS011;10088;47.946;2.532;2023-12-20T08:33:25;4.37;;;1.57;;
19854;SDS011;10088;47.946;2.532;2023-12-20T08:35:50;2.97;;;1.30;;
19854;SDS011;10088;47.946;2.532;2023-12-20T08:38:15;11.33;;;1.43;;
19854;SDS011;10088;47.946;2.532;2023-12-20T08:40:41;8.47;;;1.70;;
19854;SDS011;10088;47.946;2.532;2023-12-20T08:43:07;3.83;;;1.70;;
19854;SDS011;10088;47.946;2.532;2023-12-20T08:45:32;7.93;;;1.60;;
19854;SDS011;10088;47.946;2.532;2023-12-20T08:47:57;5.13;;;1.60;;
19854;SDS011;10088;47.946;2.532;2023-12-20T08:50:23;8.40;;;1.63;;
19854;SDS011;10088;47.946;2.532;2023-12-20T08:52:48;6.00;;;1.60;;
19854;SDS011;10088;47.946;2.532;2023-12-20T08:55:13;9.20;;;2.03;;
19854;SDS011;10088;47.946;2.532;2023-12-20T08:57:41;5.97;;;1.10;;
19854;SDS011;10088;47.946;2.532;2023-12-20T09:00:06;8.00;;;1.83;;
19854;SDS011;10088;47.946;2.532;2023-12-20T09:02:32;6.57;;;2.03;;
19854;SDS011;10088;47.946;2.532;2023-12-20T09:05:01;7.63;;;1.90;;
19854;SDS011;10088;47.946;2.532;2023-12-20T09:07:26;4.93;;;2.57;;
19854;SDS011;10088;47.946;2.532;2023-12-20T09:09:52;7.27;;;2.10;;
19854;SDS011;10088;47.946;2.532;2023-12-20T09:12:20;7.20;;;2.80;;
19854;SDS011;10088;47.946;2.532;2023-12-20T09:14:46;9.77;;;2.10;;
19854;SDS011;10088;47.946;2.532;2023-12-20T09:17:12;4.63;;;1.87;;
19854;SDS011;10088;47.946;2.532;2023-12-20T09:19:37;6.70;;;1.63;;
19854;SDS011;10088;47.946;2.532;2023-12-20T09:22:02;4.93;;;1.93;;
19854;SDS011;10088;47.946;2.532;2023-12-20T09:24:28;6.07;;;1.57;;
19854;SDS011;10088;47.946;2.532;2023-12-20T09:26:54;5.90;;;1.63;;
19854;SDS011;10088;47.946;2.532;2023-12-20T09:29:19;4.33;;;1.97;;
19854;SDS011;10088;47.946;2.532;2023-12-20T09:31:44;5.90;;;1.87;;
19854;SDS011;10088;47.946;2.532;2023-12-20T09:34:11;14.13;;;3.00;;
19854;SDS011;10088;47.946;2.532;2023-12-20T09:36:36;8.00;;;2.20;;
19854;SDS011;10088;47.946;2.532;2023-12-20T09:39:03;6.03;;;2.40;;
19854;SDS011;10088;47.946;2.532;2023-12-20T09:41:30;11.83;;;2.87;;
19854;SDS011;10088;47.946;2.532;2023-12-20T09:43:56;8.17;;;2.50;;
19854;SDS011;10088;47.946;2.532;2023-12-20T09:46:25;5.87;;;2.07;;
19854;SDS011;10088;47.946;2.532;2023-12-20T09:48:51;7.57;;;2.23;;
19854;SDS011;10088;47.946;2.532;2023-12-20T09:51:17;7.80;;;2.47;;
19854;SDS011;10088;47.946;2.532;2023-12-20T09:53:43;4.93;;;2.40;;
19854;SDS011;10088;47.946;2.532;2023-12-20T09:56:08;5.03;;;2.27;;
19854;SDS011;10088;47.946;2.532;2023-12-20T09:58:35;10.00;;;2.50;;
19854;SDS011;10088;47.946;2.532;2023-12-20T10:01:01;5.03;;;2.83;;
19854;SDS011;10088;47.946;2.532;2023-12-20T10:03:26;12.50;;;2.23;;
19854;SDS011;10088;47.946;2.532;2023-12-20T10:05:56;5.33;;;1.80;;
19854;SDS011;10088;47.946;2.532;2023-12-20T10:08:22;6.67;;;2.13;;
19854;SDS011;10088;47.946;2.532;2023-12-20T10:10:49;4.67;;;1.30;;
19854;SDS011;10088;47.946;2.532;2023-12-20T10:13:14;6.43;;;2.00;;
19854;SDS011;10088;47.946;2.532;2023-12-20T10:15:40;6.80;;;2.00;;
19854;SDS011;10088;47.946;2.532;2023-12-20T10:18:05;6.70;;;1.77;;
19854;SDS011;10088;47.946;2.532;2023-12-20T10:20:31;3.60;;;1.40;;
19854;SDS011;10088;47.946;2.532;2023-12-20T10:22:57;6.07;;;1.80;;
19854;SDS011;10088;47.946;2.532;2023-12-20T10:25:23;5.67;;;1.60;;
19854;SDS011;10088;47.946;2.532;2023-12-20T10:27:49;5.73;;;2.50;;
19854;SDS011;10088;47.946;2.532;2023-12-20T10:30:14;9.23;;;3.03;;
19854;SDS011;10088;47.946;2.532;2023-12-20T10:32:40;6.57;;;2.87;;
19854;SDS011;10088;47.946;2.532;2023-12-20T10:35:05;8.47;;;2.63;;
19854;SDS011;10088;47.946;2.532;2023-12-20T10:37:33;7.20;;;2.20;;
19854;SDS011;10088;47.946;2.532;2023-12-20T10:40:00;6.90;;;2.60;;
19854;SDS011;10088;47.946;2.532;2023-12-20T10:42:28;8.73;;;2.37;;
19854;SDS011;10088;47.946;2.532;2023-12-20T10:44:54;5.93;;;2.20;;
19854;SDS011;10088;47.946;2.532;2023-12-20T10:47:20;7.93;;;2.53;;
19854;SDS011;10088;47.946;2.532;2023-12-20T10:49:45;13.47;;;2.63;;
19854;SDS011;10088;47.946;2.532;2023-12-20T10:52:11;8.00;;;1.77;;
19854;SDS011;10088;47.946;2.532;2023-12-20T10:54:36;10.03;;;2.30;;
19854;SDS011;10088;47.946;2.532;2023-12-20T10:57:02;5.27;;;2.00;;
19854;SDS011;10088;47.946;2.532;2023-12-20T10:59:30;13.37;;;2.00;;
19854;SDS011;10088;47.946;2.532;2023-12-20T11:01:58;6.70;;;1.50;;
19854;SDS011;10088;47.946;2.532;2023-12-20T11:04:28;4.73;;;1.53;;
19854;SDS011;10088;47.946;2.532;2023-12-20T11:07:00;4.90;;;2.10;;
19854;SDS011;10088;47.946;2.532;2023-12-20T11:09:33;6.93;;;1.90;;
19854;SDS011;10088;47.946;2.532;2023-12-20T11:12:13;10.33;;;2.00;;
19854;SDS011;10088;47.946;2.532;2023-12-20T11:17:08;5.63;;;1.60;;
19854;SDS011;10088;47.946;2.532;2023-12-20T11:19:38;5.23;;;2.33;;
19854;SDS011;10088;47.946;2.532;2023-12-20T11:22:26;6.10;;;2.13;;
19854;SDS011;10088;47.946;2.532;2023-12-20T11:24:53;4.23;;;1.50;;
19854;SDS011;10088;47.946;2.532;2023-12-20T11:27:19;6.97;;;1.93;;
19854;SDS011;10088;47.946;2.532;2023-12-20T11:29:57;5.47;;;1.70;;
19854;SDS011;10088;47.946;2.532;2023-12-20T11:34:55;3.93;;;1.73;;
19854;SDS011;10088;47.946;2.532;2023-12-20T11:37:21;5.63;;;1.60;;
19854;SDS011;10088;47.946;2.532;2023-12-20T11:39:54;6.83;;;1.73;;
19854;SDS011;10088;47.946;2.532;2023-12-20T11:42:20;3.47;;;1.60;;
19854;SDS011;10088;47.946;2.532;2023-12-20T11:44:45;6.80;;;1.63;;
19854;SDS011;10088;47.946;2.532;2023-12-20T11:47:11;5.30;;;1.80;;
19854;SDS011;10088;47.946;2.532;2023-12-20T11:49:37;9.07;;;1.90;;
19854;SDS011;10088;47.946;2.532;2023-12-20T11:52:02;8.50;;;1.90;;
19854;SDS011;10088;47.946;2.532;2023-12-20T11:54:29;8.07;;;1.30;;
19854;SDS011;10088;47.946;2.532;2023-12-20T11:56:55;7.07;;;1.90;;
19854;SDS011;10088;47.946;2.532;2023-12-20T11:59:20;7.03;;;2.23;;
19854;SDS011;10088;47.946;2.532;2023-12-20T12:01:49;10.23;;;2.30;;
19854;SDS011;10088;47.946;2.532;2023-12-20T12:04:15;4.70;;;1.77;;
19854;SDS011;10088;47.946;2.532;2023-12-20T12:06:42;6.87;;;1.63;;
19854;SDS011;10088;47.946;2.532;2023-12-20T12:09:07;7.57;;;2.00;;
19854;SDS011;10088;47.946;2.532;2023-12-20T12:11:33;8.53;;;2.43;;
19854;SDS011;10088;47.946;2.532;2023-12-20T12:13:58;9.07;;;2.27;;
19854;SDS011;10088;47.946;2.532;2023-12-20T12:16:24;6.93;;;1.70;;
19854;SDS011;10088;47.946;2.532;2023-12-20T12:18:59;3.63;;;1.43;;
19854;SDS011;10088;47.946;2.532;2023-12-20T12:21:25;5.30;;;1.77;;
19854;SDS011;10088;47.946;2.532;2023-12-20T12:23:51;9.63;;;2.00;;
19854;SDS011;10088;47.946;2.532;2023-12-20T12:26:16;6.00;;;1.37;;
19854;SDS011;10088;47.946;2.532;2023-12-20T12:28:42;11.40;;;1.80;;
19854;SDS011;10088;47.946;2.532;2023-12-20T12:31:07;6.13;;;2.30;;
19854;SDS011;10088;47.946;2.532;2023-12-20T12:33:33;7.70;;;2.10;;
19854;SDS011;10088;47.946;2.532;2023-12-20T12:36:00;10.60;;;1.70;;
19854;SDS011;10088;47.946;2.532;2023-12-20T12:38:26;8.17;;;1.57;;
19854;SDS011;10088;47.946;2.532;2023-12-20T12:40:51;3.80;;;2.00;;
19854;SDS011;10088;47.946;2.532;2023-12-20T12:43:18;6.97;;;1.63;;
19854;SDS011;10088;47.946;2.532;2023-12-20T12:45:43;6.80;;;1.67;;
19854;SDS011;10088;47.946;2.532;2023-12-20T12:48:08;6.03;;;1.67;;
19854;SDS011;10088;47.946;2.532;2023-12-20T12:50:34;7.13;;;1.30;;
19854;SDS011;10088;47.946;2.532;2023-12-20T12:52:59;5.53;;;1.03;;
19854;SDS011;10088;47.946;2.532;2023-12-20T12:55:24;6.53;;;1.57;;
19854;SDS011;10088;47.946;2.532;2023-12-20T12:57:50;8.00;;;1.60;;
19854;SDS011;10088;47.946;2.532;2023-12-20T13:00:15;9.60;;;1.90;;
19854;SDS011;10088;47.946;2.532;2023-12-20T13:02:40;6.87;;;1.30;;
19854;SDS011;10088;47.946;2.532;2023-12-20T13:05:08;5.67;;;1.60;;
19854;SDS011;10088;47.946;2.532;2023-12-20T13:07:34;9.60;;;1.63;;
19854;SDS011;10088;47.946;2.532;2023-12-20T13:09:59;8.20;;;1.47;;
19854;SDS011;10088;47.946;2.532;2023-12-20T13:12:25;6.67;;;1.53;;
19854;SDS011;10088;47.946;2.532;2023-12-20T13:14:50;8.53;;;1.70;;
19854;SDS011;10088;47.946;2.532;2023-12-20T13:17:16;8.97;;;2.30;;
19854;SDS011;10088;47.946;2.532;2023-12-20T13:19:41;7.23;;;1.73;;
19854;SDS011;10088;47.946;2.532;2023-12-20T13:22:06;7.83;;;1.77;;
19854;SDS011;10088;47.946;2.532;2023-12-20T13:24:32;5.90;;;2.00;;
19854;SDS011;10088;47.946;2.532;2023-12-20T13:26:57;7.93;;;1.60;;
19854;SDS011;10088;47.946;2.532;2023-12-20T13:29:23;8.00;;;1.87;;
19854;SDS011;10088;47.946;2.532;2023-12-20T13:31:49;5.57;;;2.43;;
19854;SDS011;10088;47.946;2.532;2023-12-20T13:34:14;4.90;;;1.40;;
19854;SDS011;10088;47.946;2.532;2023-12-20T13:36:42;9.40;;;1.97;;
19854;SDS011;10088;47.946;2.532;2023-12-20T13:39:07;5.13;;;1.67;;
19854;SDS011;10088;47.946;2.532;2023-12-20T13:41:33;7.60;;;1.80;;
19854;SDS011;10088;47.946;2.532;2023-12-20T13:43:58;9.23;;;1.57;;
19854;SDS011;10088;47.946;2.532;2023-12-20T13:46:23;7.73;;;1.90;;
19854;SDS011;10088;47.946;2.532;2023-12-20T13:48:49;6.87;;;1.77;;
19854;SDS011;10088;47.946;2.532;2023-12-20T13:51:14;4.63;;;1.53;;
19854;SDS011;10088;47.946;2.532;2023-12-20T13:53:40;8.17;;;1.70;;
19854;SDS011;10088;47.946;2.532;2023-12-20T13:56:05;6.17;;;1.93;;
19854;SDS011;10088;47.946;2.532;2023-12-20T13:58:31;4.80;;;1.30;;
19854;SDS011;10088;47.946;2.532;2023-12-20T14:00:56;6.10;;;1.70;;
19854;SDS011;10088;47.946;2.532;2023-12-20T14:03:21;3.70;;;0.90;;
19854;SDS011;10088;47.946;2.532;2023-12-20T14:05:47;8.63;;;1.47;;
19854;SDS011;10088;47.946;2.532;2023-12-20T14:08:12;6.80;;;1.43;;
19854;SDS011;10088;47.946;2.532;2023-12-20T14:10:37;5.13;;;1.77;;
19854;SDS011;10088;47.946;2.532;2023-12-20T14:13:03;3.30;;;1.27;;
19854;SDS011;10088;47.946;2.532;2023-12-20T14:15:30;6.83;;;1.70;;
19854;SDS011;10088;47.946;2.532;2023-12-20T14:17:55;5.77;;;1.90;;
19854;SDS011;10088;47.946;2.532;2023-12-20T14:20:21;5.73;;;1.70;;
19854;SDS011;10088;47.946;2.532;2023-12-20T14:22:46;6.37;;;1.67;;
19854;SDS011;10088;47.946;2.532;2023-12-20T14:25:12;4.43;;;1.57;;
19854;SDS011;10088;47.946;2.532;2023-12-20T14:27:37;6.73;;;1.67;;
19854;SDS011;10088;47.946;2.532;2023-12-20T14:30:03;4.53;;;1.53;;
19854;SDS011;10088;47.946;2.532;2023-12-20T14:32:28;4.67;;;1.70;;
19854;SDS011;10088;47.946;2.532;2023-12-20T14:34:53;4.57;;;1.30;;
19854;SDS011;10088;47.946;2.532;2023-12-20T14:37:20;8.70;;;1.80;;
19854;SDS011;10088;47.946;2.532;2023-12-20T14:39:45;6.50;;;1.40;;
19854;SDS011;10088;47.946;2.532;2023-12-20T14:42:10;5.57;;;1.80;;
19854;SDS011;10088;47.946;2.532;2023-12-20T14:44:39;5.90;;;1.23;;